| time (UTC) | temp F | wind direction | speed MPH | gust MPH | rain 1hr in | rain 24hr in | rain mn in | humidity % | barometer mb |
| 20260510215015 | 63 | 0.0 | 0.0 | 0.03 | 0.27 | 0.15 | 89 | 1008.2 | |
| 20260510214515 | 63 | 0.0 | 0.0 | 0.04 | 0.27 | 0.15 | 89 | 1008.2 | |
| 20260510214015 | 63 | 0.0 | 0.0 | 0.04 | 0.27 | 0.15 | 89 | 1008.1 | |
| 20260510213515 | 63 | 0.0 | 0.0 | 0.04 | 0.27 | 0.14 | 89 | 1008.1 | |
| 20260510213035 | 63 | 0.0 | 0.0 | 0.04 | 0.27 | 0.14 | 89 | 1008.1 | |
| 20260510212515 | 63 | 0.0 | 0.0 | 0.05 | 0.27 | 0.14 | 89 | 1008.1 | |
| 20260510212015 | 63 | 0.0 | 0.0 | 0.06 | 0.28 | 0.14 | 88 | 1008.2 | |
| 20260510211515 | 63 | 0.0 | 0.0 | 0.06 | 0.28 | 0.14 | 90 | 1008.3 | |
| 20260510211015 | 63 | 0.0 | 0.0 | 0.07 | 0.27 | 0.13 | 90 | 1008.3 | |
| 20260510210555 | 62 | 0.0 | 1.0 | 0.07 | 0.27 | 0.13 | 89 | 1008.3 | |
| 20260510210015 | 62 | 206 | 0.0 | 3.0 | 0.07 | 0.26 | 0.12 | 88 | 1008.4 |
| 20260510205514 | 62 | 201 | 0.0 | 3.0 | 0.07 | 0.26 | 0.12 | 89 | 1008.4 |
| 20260510205016 | 62 | 281 | 0.0 | 2.0 | 0.07 | 0.27 | 0.12 | 87 | 1008.3 |
| 20260510204517 | 62 | 0.0 | 1.0 | 0.06 | 0.26 | 0.11 | 87 | 1008.2 | |
| 20260510204016 | 63 | 284 | 0.0 | 1.0 | 0.06 | 0.26 | 0.11 | 85 | 1008.2 |
| 20260510203517 | 63 | 0.0 | 0.0 | 0.05 | 0.26 | 0.10 | 84 | 1008.3 | |
| 20260510203017 | 63 | 0.0 | 0.0 | 0.05 | 0.26 | 0.10 | 83 | 1008.2 | |
| 20260510202537 | 64 | 0.0 | 3.0 | 0.04 | 0.25 | 0.09 | 80 | 1007.9 | |
| 20260510202057 | 65 | 16 | 0.0 | 3.0 | 0.03 | 0.24 | 0.08 | 78 | 1007.9 |
| 20260510201515 | 67 | 247 | 0.0 | 2.0 | 0.03 | 0.24 | 0.08 | 77 | 1008.3 |
| 20260510201016 | 68 | 129 | 0.0 | 3.0 | 0.01 | 0.22 | 0.06 | 75 | 1008.4 |
| 20260510200516 | 69 | 197 | 0.0 | 4.0 | 0.01 | 0.22 | 0.06 | 69 | 1008.1 |
| 20260510200016 | 70 | 170 | 0.0 | 4.0 | 0.00 | 0.21 | 0.05 | 65 | 1007.8 |
| 20260510195556 | 70 | 0.0 | 3.0 | 0.00 | 0.21 | 0.05 | 64 | 1007.7 | |
| 20260510195017 | 70 | 171 | 0.0 | 4.0 | 0.00 | 0.21 | 0.05 | 62 | 1007.7 |
| 20260510194516 | 71 | 207 | 0.0 | 4.0 | 0.00 | 0.21 | 0.05 | 60 | 1007.7 |
| 20260510194016 | 71 | 0.0 | 3.0 | 0.00 | 0.21 | 0.05 | 61 | 1007.7 | |
| 20260510193516 | 71 | 218 | 0.0 | 7.0 | 0.00 | 0.21 | 0.05 | 61 | 1007.8 |
| 20260510193017 | 71 | 219 | 1.0 | 7.0 | 0.00 | 0.21 | 0.05 | 60 | 1007.9 |
| 20260510192517 | 71 | 189 | 0.0 | 6.0 | 0.00 | 0.21 | 0.05 | 60 | 1007.9 |
| 20260510192016 | 71 | 188 | 1.0 | 4.0 | 0.00 | 0.21 | 0.05 | 63 | 1007.9 |
| 20260510191516 | 70 | 89 | 0.0 | 5.0 | 0.00 | 0.21 | 0.05 | 62 | 1008.0 |
| 20260510191016 | 70 | 250 | 0.0 | 5.0 | 0.00 | 0.21 | 0.05 | 61 | 1008.1 |
| 20260510190516 | 71 | 300 | 0.0 | 3.0 | 0.00 | 0.21 | 0.05 | 60 | 1008.0 |
| 20260510190036 | 71 | 0.0 | 0.0 | 0.00 | 0.21 | 0.05 | 60 | 1008.1 | |
| 20260510185516 | 71 | 0.0 | 0.0 | 0.00 | 0.21 | 0.05 | 61 | 1008.1 | |
| 20260510185016 | 71 | 0.0 | 0.0 | 0.00 | 0.21 | 0.05 | 63 | 1008.1 | |
| 20260510184516 | 72 | 0.0 | 6.0 | 0.00 | 0.21 | 0.05 | 62 | 1008.0 | |
| 20260510184016 | 72 | 213 | 1.0 | 6.0 | 0.00 | 0.21 | 0.05 | 61 | 1007.9 |
| 20260510183516 | 71 | 222 | 0.0 | 5.0 | 0.00 | 0.21 | 0.05 | 62 | 1008.1 |
| 20260510183016 | 71 | 0.0 | 0.0 | 0.00 | 0.21 | 0.05 | 64 | 1008.1 | |
| 20260510182516 | 71 | 0.0 | 0.0 | 0.00 | 0.21 | 0.05 | 63 | 1008.2 | |
| 20260510182016 | 71 | 0.0 | 0.0 | 0.00 | 0.22 | 0.05 | 61 | 1008.3 | |
| 20260510181516 | 71 | 0.0 | 0.0 | 0.00 | 0.22 | 0.05 | 59 | 1008.3 | |
| 20260510181016 | 72 | 0.0 | 0.0 | 0.00 | 0.23 | 0.05 | 59 | 1008.3 | |
| 20260510180516 | 72 | 0.0 | 0.0 | 0.00 | 0.23 | 0.05 | 60 | 1008.3 | |
| 20260510180016 | 72 | 0.0 | 4.0 | 0.00 | 0.23 | 0.05 | 61 | 1008.3 | |
| 20260510175516 | 72 | 182 | 0.0 | 10.0 | 0.00 | 0.23 | 0.05 | 62 | 1008.3 |
| 20260510175016 | 72 | 253 | 1.0 | 10.0 | 0.00 | 0.23 | 0.05 | 63 | 1008.4 |
| 20260510174516 | 71 | 143 | 1.0 | 8.0 | 0.00 | 0.24 | 0.05 | 65 | 1008.5 |
| 20260510174016 | 71 | 212 | 2.0 | 8.0 | 0.00 | 0.24 | 0.05 | 63 | 1008.5 |
| 20260510173516 | 70 | 0.0 | 1.0 | 0.00 | 0.24 | 0.05 | 65 | 1008.6 | |
| 20260510173016 | 70 | 152 | 0.0 | 1.0 | 0.00 | 0.25 | 0.05 | 65 | 1008.6 |
| 20260510172516 | 70 | 0.0 | 4.0 | 0.00 | 0.25 | 0.05 | 66 | 1008.7 | |
| 20260510172016 | 69 | 169 | 0.0 | 4.0 | 0.00 | 0.25 | 0.05 | 67 | 1008.8 |
| 20260510171516 | 69 | 159 | 0.0 | 1.0 | 0.00 | 0.26 | 0.05 | 68 | 1008.8 |
| 20260510171016 | 69 | 0.0 | 4.0 | 0.00 | 0.26 | 0.05 | 68 | 1008.8 | |
| 20260510170516 | 69 | 188 | 0.0 | 4.0 | 0.00 | 0.26 | 0.05 | 69 | 1008.9 |
| 20260510170016 | 69 | 0.0 | 0.0 | 0.00 | 0.27 | 0.05 | 70 | 1008.9 | |
| 20260510165516 | 68 | 0.0 | 1.0 | 0.00 | 0.27 | 0.05 | 71 | 1008.9 | |
| 20260510165016 | 68 | 147 | 0.0 | 1.0 | 0.00 | 0.27 | 0.05 | 70 | 1009.0 |
| 20260510164516 | 68 | 0.0 | 10.0 | 0.00 | 0.27 | 0.05 | 71 | 1009.0 | |
| 20260510164016 | 68 | 99 | 1.0 | 10.0 | 0.00 | 0.28 | 0.05 | 73 | 1009.1 |
| 20260510163516 | 68 | 0.0 | 0.0 | 0.00 | 0.28 | 0.05 | 73 | 1009.1 | |
| 20260510163016 | 67 | 0.0 | 1.0 | 0.00 | 0.29 | 0.05 | 72 | 1009.2 | |
| 20260510162516 | 67 | 228 | 0.0 | 8.0 | 0.00 | 0.29 | 0.05 | 71 | 1009.3 |
| 20260510162016 | 67 | 244 | 1.0 | 8.0 | 0.00 | 0.29 | 0.05 | 73 | 1009.3 |
| 20260510161516 | 67 | 241 | 1.0 | 8.0 | 0.00 | 0.29 | 0.05 | 74 | 1009.4 |
| 20260510161036 | 66 | 0.0 | 0.0 | 0.00 | 0.30 | 0.05 | 73 | 1009.4 | |
| 20260510160556 | 66 | 0.0 | 1.0 | 0.00 | 0.30 | 0.05 | 75 | 1009.4 | |
| 20260510160016 | 65 | 218 | 0.0 | 1.0 | 0.00 | 0.30 | 0.05 | 76 | 1009.4 |
| 20260510155536 | 65 | 0.0 | 0.0 | 0.00 | 0.30 | 0.05 | 77 | 1009.4 | |
| 20260510155016 | 64 | 0.0 | 0.0 | 0.00 | 0.30 | 0.05 | 79 | 1009.4 | |
| 20260510154516 | 64 | 0.0 | 0.0 | 0.00 | 0.31 | 0.05 | 79 | 1009.4 | |
| 20260510154016 | 63 | 0.0 | 0.0 | 0.00 | 0.31 | 0.05 | 80 | 1009.5 | |
| 20260510153516 | 63 | 0.0 | 0.0 | 0.00 | 0.31 | 0.05 | 81 | 1009.6 | |
| 20260510153036 | 62 | 0.0 | 0.0 | 0.00 | 0.31 | 0.05 | 80 | 1009.7 | |
| 20260510152516 | 62 | 0.0 | 0.0 | 0.00 | 0.31 | 0.05 | 81 | 1009.8 | |
| 20260510152016 | 62 | 0.0 | 0.0 | 0.00 | 0.31 | 0.05 | 83 | 1009.8 | |
| 20260510151516 | 61 | 0.0 | 0.0 | 0.00 | 0.32 | 0.05 | 84 | 1009.7 | |
| 20260510151036 | 61 | 0.0 | 0.0 | 0.00 | 0.32 | 0.05 | 85 | 1009.7 | |
| 20260510150516 | 61 | 0.0 | 0.0 | 0.00 | 0.32 | 0.05 | 86 | 1009.7 | |
| 20260510150016 | 60 | 0.0 | 0.0 | 0.00 | 0.33 | 0.05 | 88 | 1009.8 | |
| 20260510145516 | 59 | 0.0 | 0.0 | 0.00 | 0.33 | 0.05 | 88 | 1009.8 | |
| 20260510145016 | 59 | 0.0 | 0.0 | 0.00 | 0.33 | 0.05 | 89 | 1009.9 | |
| 20260510144516 | 59 | 0.0 | 0.0 | 0.00 | 0.33 | 0.05 | 90 | 1009.9 | |
| 20260510144016 | 58 | 0.0 | 0.0 | 0.00 | 0.33 | 0.05 | 90 | 1009.9 | |
| 20260510143516 | 58 | 0.0 | 0.0 | 0.01 | 0.33 | 0.05 | 90 | 1010.0 | |
| 20260510143016 | 57 | 0.0 | 0.0 | 0.01 | 0.33 | 0.05 | 91 | 1010.0 | |
| 20260510142516 | 57 | 0.0 | 0.0 | 0.01 | 0.34 | 0.05 | 91 | 1010.1 | |
| 20260510142016 | 57 | 0.0 | 0.0 | 0.01 | 0.34 | 0.05 | 91 | 1010.1 | |
| 20260510141516 | 57 | 0.0 | 0.0 | 0.01 | 0.34 | 0.05 | 92 | 1010.0 | |
| 20260510141036 | 57 | 0.0 | 0.0 | 0.01 | 0.34 | 0.05 | 92 | 1009.9 | |
| 20260510140516 | 57 | 0.0 | 0.0 | 0.01 | 0.35 | 0.05 | 92 | 1009.9 | |
| 20260510140016 | 56 | 0.0 | 0.0 | 0.01 | 0.35 | 0.05 | 92 | 1010.0 | |
| 20260510135516 | 56 | 0.0 | 0.0 | 0.01 | 0.35 | 0.05 | 92 | 1010.0 | |
| 20260510135015 | 56 | 0.0 | 0.0 | 0.01 | 0.35 | 0.05 | 92 | 1010.0 | |
| 20260510134536 | 56 | 0.0 | 0.0 | 0.01 | 0.35 | 0.05 | 92 | 1010.0 | |
| 20260510134016 | 56 | 0.0 | 0.0 | 0.01 | 0.36 | 0.05 | 92 | 1009.9 | |
| 20260510133516 | 56 | 0.0 | 0.0 | 0.00 | 0.35 | 0.04 | 92 | 1009.9 | |
| 20260510133016 | 55 | 0.0 | 0.0 | 0.00 | 0.35 | 0.04 | 92 | 1009.9 | |
| 20260510132515 | 55 | 0.0 | 0.0 | 0.00 | 0.36 | 0.04 | 93 | 1010.0 | |
| 20260510132016 | 55 | 0.0 | 0.0 | 0.00 | 0.36 | 0.04 | 93 | 1010.0 | |
| 20260510131516 | 54 | 0.0 | 0.0 | 0.00 | 0.36 | 0.04 | 93 | 1010.0 | |
| 20260510131015 | 54 | 0.0 | 0.0 | 0.00 | 0.36 | 0.04 | 93 | 1010.0 | |
| 20260510130535 | 54 | 0.0 | 0.0 | 0.00 | 0.36 | 0.04 | 93 | 1010.0 | |
| 20260510130016 | 54 | 0.0 | 0.0 | 0.00 | 0.36 | 0.04 | 93 | 1010.0 | |
| 20260510125515 | 54 | 0.0 | 0.0 | 0.00 | 0.36 | 0.04 | 93 | 1010.0 | |
| 20260510125015 | 54 | 0.0 | 0.0 | 0.00 | 0.36 | 0.04 | 93 | 1010.0 | |
| 20260510124515 | 53 | 0.0 | 0.0 | 0.00 | 0.36 | 0.04 | 93 | 1010.0 | |
| 20260510124016 | 53 | 0.0 | 0.0 | 0.00 | 0.36 | 0.04 | 93 | 1010.0 | |
| 20260510123535 | 53 | 0.0 | 0.0 | 0.00 | 0.36 | 0.04 | 93 | 1010.0 | |
| 20260510123015 | 53 | 0.0 | 0.0 | 0.00 | 0.37 | 0.04 | 93 | 1010.0 | |
| 20260510122515 | 53 | 0.0 | 0.0 | 0.00 | 0.37 | 0.04 | 93 | 1009.9 | |
| 20260510122015 | 53 | 0.0 | 0.0 | 0.00 | 0.37 | 0.04 | 93 | 1010.0 | |
| 20260510121515 | 53 | 0.0 | 0.0 | 0.00 | 0.37 | 0.04 | 93 | 1010.0 | |
| 20260510121015 | 53 | 0.0 | 0.0 | 0.00 | 0.37 | 0.04 | 93 | 1009.9 | |
| 20260510120516 | 53 | 0.0 | 0.0 | 0.00 | 0.37 | 0.04 | 93 | 1009.9 | |
| 20260510120016 | 53 | 0.0 | 0.0 | 0.00 | 0.37 | 0.04 | 93 | 1009.8 | |
| 20260510115515 | 52 | 0.0 | 0.0 | 0.00 | 0.37 | 0.04 | 93 | 1009.7 | |
| 20260510115015 | 52 | 0.0 | 0.0 | 0.00 | 0.37 | 0.04 | 93 | 1009.7 | |
| 20260510114516 | 52 | 0.0 | 0.0 | 0.00 | 0.37 | 0.04 | 93 | 1009.8 | |
| 20260510114015 | 52 | 0.0 | 0.0 | 0.00 | 0.37 | 0.04 | 93 | 1009.8 | |
| 20260510113515 | 51 | 0.0 | 0.0 | 0.00 | 0.37 | 0.04 | 93 | 1009.8 | |
| 20260510113015 | 51 | 0.0 | 0.0 | 0.00 | 0.37 | 0.04 | 93 | 1009.8 | |
| 20260510112515 | 51 | 0.0 | 0.0 | 0.00 | 0.37 | 0.04 | 93 | 1009.7 | |
| 20260510112035 | 51 | 0.0 | 0.0 | 0.00 | 0.37 | 0.04 | 93 | 1009.8 | |
| 20260510111535 | 51 | 0.0 | 0.0 | 0.00 | 0.37 | 0.04 | 93 | 1009.8 | |
| 20260510111015 | 50 | 0.0 | 0.0 | 0.00 | 0.37 | 0.04 | 93 | 1009.9 | |
| 20260510110515 | 50 | 0.0 | 0.0 | 0.00 | 0.37 | 0.04 | 93 | 1009.8 | |
| 20260510110015 | 50 | 0.0 | 0.0 | 0.00 | 0.37 | 0.04 | 93 | 1009.6 | |
| 20260510105515 | 50 | 0.0 | 0.0 | 0.00 | 0.37 | 0.04 | 93 | 1009.5 | |
| 20260510105015 | 50 | 0.0 | 0.0 | 0.00 | 0.37 | 0.04 | 93 | 1009.4 | |
| 20260510104515 | 50 | 0.0 | 0.0 | 0.00 | 0.37 | 0.04 | 93 | 1009.5 | |
| 20260510104035 | 50 | 0.0 | 0.0 | 0.00 | 0.37 | 0.04 | 93 | 1009.4 | |
| 20260510103515 | 50 | 0.0 | 0.0 | 0.01 | 0.37 | 0.04 | 93 | 1009.3 | |
| 20260510103015 | 50 | 0.0 | 0.0 | 0.01 | 0.37 | 0.04 | 93 | 1009.3 | |
| 20260510102535 | 49 | 0.0 | 0.0 | 0.01 | 0.37 | 0.04 | 93 | 1009.0 | |
| 20260510102035 | 49 | 0.0 | 0.0 | 0.01 | 0.37 | 0.04 | 93 | 1008.9 | |
| 20260510101515 | 49 | 0.0 | 0.0 | 0.01 | 0.37 | 0.04 | 93 | 1009.0 | |
| 20260510101015 | 49 | 0.0 | 0.0 | 0.01 | 0.37 | 0.04 | 93 | 1009.1 | |
| 20260510100515 | 49 | 0.0 | 0.0 | 0.01 | 0.37 | 0.04 | 93 | 1009.0 | |
| 20260510100015 | 49 | 0.0 | 0.0 | 0.01 | 0.37 | 0.04 | 93 | 1009.2 | |
| 20260510095515 | 49 | 0.0 | 0.0 | 0.01 | 0.37 | 0.04 | 93 | 1009.0 | |
| 20260510095015 | 49 | 0.0 | 0.0 | 0.01 | 0.37 | 0.04 | 93 | 1009.0 | |
| 20260510094515 | 49 | 0.0 | 0.0 | 0.01 | 0.37 | 0.04 | 93 | 1009.0 | |
| 20260510094015 | 49 | 0.0 | 0.0 | 0.01 | 0.37 | 0.04 | 93 | 1009.0 | |
| 20260510093515 | 49 | 0.0 | 0.0 | 0.00 | 0.36 | 0.03 | 93 | 1009.0 | |
| 20260510093015 | 49 | 0.0 | 0.0 | 0.00 | 0.36 | 0.03 | 93 | 1009.0 | |
| 20260510092515 | 49 | 0.0 | 0.0 | 0.00 | 0.36 | 0.03 | 93 | 1009.0 | |
| 20260510092015 | 49 | 0.0 | 0.0 | 0.00 | 0.36 | 0.03 | 93 | 1008.9 | |
| 20260510091535 | 49 | 0.0 | 0.0 | 0.00 | 0.36 | 0.03 | 93 | 1008.9 | |
| 20260510091015 | 49 | 0.0 | 0.0 | 0.01 | 0.36 | 0.03 | 93 | 1008.9 | |
| 20260510090515 | 49 | 0.0 | 0.0 | 0.01 | 0.36 | 0.03 | 93 | 1008.8 | |
| 20260510090015 | 49 | 0.0 | 0.0 | 0.01 | 0.36 | 0.03 | 93 | 1008.9 | |
| 20260510085515 | 49 | 0.0 | 0.0 | 0.01 | 0.36 | 0.03 | 93 | 1008.9 | |
| 20260510085015 | 48 | 0.0 | 0.0 | 0.01 | 0.36 | 0.03 | 93 | 1008.9 | |
| 20260510084515 | 48 | 0.0 | 0.0 | 0.01 | 0.36 | 0.03 | 93 | 1009.0 | |
| 20260510084015 | 48 | 0.0 | 0.0 | 0.01 | 0.36 | 0.03 | 93 | 1008.9 | |
| 20260510083535 | 48 | 0.0 | 0.0 | 0.01 | 0.36 | 0.03 | 93 | 1008.9 | |
| 20260510083015 | 48 | 0.0 | 0.0 | 0.01 | 0.36 | 0.03 | 93 | 1008.8 | |
| 20260510082515 | 48 | 0.0 | 0.0 | 0.01 | 0.36 | 0.03 | 93 | 1008.8 | |
| 20260510082015 | 48 | 0.0 | 0.0 | 0.01 | 0.36 | 0.03 | 93 | 1008.8 | |
| 20260510081515 | 48 | 0.0 | 0.0 | 0.01 | 0.36 | 0.03 | 93 | 1008.9 | |
| 20260510081015 | 48 | 0.0 | 0.0 | 0.00 | 0.35 | 0.02 | 93 | 1008.8 | |
| 20260510080515 | 48 | 0.0 | 0.0 | 0.00 | 0.35 | 0.02 | 93 | 1008.8 | |
| 20260510080015 | 48 | 0.0 | 0.0 | 0.00 | 0.35 | 0.02 | 93 | 1008.7 | |
| 20260510075515 | 48 | 0.0 | 0.0 | 0.00 | 0.35 | 0.02 | 93 | 1008.8 | |
| 20260510075015 | 48 | 0.0 | 0.0 | 0.00 | 0.35 | 0.02 | 93 | 1008.7 | |
| 20260510074535 | 48 | 0.0 | 0.0 | 0.00 | 0.35 | 0.02 | 93 | 1008.7 | |
| 20260510074015 | 48 | 0.0 | 0.0 | 0.00 | 0.35 | 0.02 | 93 | 1008.8 | |
| 20260510073515 | 48 | 0.0 | 0.0 | 0.00 | 0.35 | 0.02 | 93 | 1008.9 | |
| 20260510073015 | 48 | 0.0 | 0.0 | 0.00 | 0.35 | 0.02 | 93 | 1008.8 | |
| 20260510072535 | 48 | 0.0 | 0.0 | 0.00 | 0.35 | 0.02 | 93 | 1008.6 | |
| 20260510072035 | 48 | 0.0 | 0.0 | 0.00 | 0.35 | 0.02 | 93 | 1008.5 | |
| 20260510071535 | 47 | 0.0 | 0.0 | 0.00 | 0.35 | 0.02 | 93 | 1008.5 | |
| 20260510071035 | 47 | 0.0 | 0.0 | 0.00 | 0.35 | 0.02 | 93 | 1008.4 | |
| 20260510070515 | 47 | 0.0 | 0.0 | 0.01 | 0.35 | 0.02 | 93 | 1008.3 | |
| 20260510070015 | 48 | 0.0 | 0.0 | 0.01 | 0.35 | 0.02 | 93 | 1008.3 | |
| 20260510065535 | 48 | 0.0 | 0.0 | 0.01 | 0.35 | 0.02 | 93 | 1008.3 | |
| 20260510065015 | 48 | 0.0 | 0.0 | 0.01 | 0.35 | 0.02 | 93 | 1008.4 | |
| 20260510064514 | 48 | 0.0 | 0.0 | 0.01 | 0.35 | 0.02 | 92 | 1008.5 | |
| 20260510064017 | 48 | 0.0 | 0.0 | 0.01 | 0.35 | 0.02 | 92 | 1008.5 | |
| 20260510063517 | 48 | 0.0 | 0.0 | 0.01 | 0.35 | 0.02 | 93 | 1008.6 | |
| 20260510063017 | 48 | 0.0 | 0.0 | 0.01 | 0.35 | 0.02 | 93 | 1008.7 | |
| 20260510062517 | 48 | 0.0 | 0.0 | 0.01 | 0.35 | 0.02 | 92 | 1008.5 | |
| 20260510062017 | 48 | 0.0 | 0.0 | 0.01 | 0.35 | 0.02 | 92 | 1008.6 | |
| 20260510061516 | 48 | 0.0 | 0.0 | 0.01 | 0.35 | 0.02 | 93 | 1008.6 | |
| 20260510061017 | 49 | 0.0 | 0.0 | 0.02 | 0.35 | 0.02 | 93 | 1008.8 | |
| 20260510060536 | 49 | 0.0 | 0.0 | 0.01 | 0.34 | 0.01 | 93 | 1008.8 | |
| 20260510060016 | 49 | 0.0 | 0.0 | 0.01 | 0.34 | 0.01 | 93 | 1008.9 | |
| 20260510055517 | 49 | 0.0 | 0.0 | 0.01 | 0.34 | 0.01 | 93 | 1008.9 | |
| 20260510055016 | 49 | 0.0 | 0.0 | 0.01 | 0.34 | 0.01 | 93 | 1008.9 | |
| 20260510054536 | 49 | 0.0 | 0.0 | 0.01 | 0.34 | 0.01 | 93 | 1008.9 | |
| 20260510054036 | 49 | 0.0 | 0.0 | 0.01 | 0.34 | 0.01 | 93 | 1008.8 | |
| 20260510053517 | 49 | 0.0 | 0.0 | 0.01 | 0.34 | 0.01 | 93 | 1008.9 | |
| 20260510053016 | 49 | 0.0 | 0.0 | 0.01 | 0.34 | 0.01 | 93 | 1009.0 | |
| 20260510052517 | 49 | 0.0 | 0.0 | 0.01 | 0.34 | 0.01 | 93 | 1009.1 | |
| 20260510052037 | 49 | 0.0 | 0.0 | 0.01 | 0.34 | 0.01 | 93 | 1009.2 | |
| 20260510051516 | 49 | 0.0 | 0.0 | 0.01 | 0.34 | 0.01 | 93 | 1009.2 | |
| 20260510051017 | 49 | 0.0 | 0.0 | 0.00 | 0.33 | 0.00 | 92 | 1009.2 | |
| 20260510050537 | 48 | 0.0 | 0.0 | 0.00 | 0.33 | 0.00 | 92 | 1009.2 | |
| 20260510050016 | 48 | 0.0 | 0.0 | 0.00 | 0.33 | 0.00 | 92 | 1009.2 | |
| 20260510045516 | 48 | 0.0 | 0.0 | 0.00 | 0.33 | 0.00 | 92 | 1009.1 | |
| 20260510045016 | 48 | 0.0 | 0.0 | 0.01 | 0.33 | 0.00 | 92 | 1009.1 | |
| 20260510044516 | 48 | 0.0 | 0.0 | 0.01 | 0.33 | 0.00 | 92 | 1009.1 | |
| 20260510044016 | 48 | 0.0 | 0.0 | 0.01 | 0.33 | 0.00 | 92 | 1009.2 | |
| 20260510043516 | 48 | 0.0 | 0.0 | 0.01 | 0.33 | 0.00 | 92 | 1009.3 | |
| 20260510043017 | 48 | 0.0 | 0.0 | 0.01 | 0.33 | 0.00 | 92 | 1009.2 | |
| 20260510042516 | 48 | 0.0 | 0.0 | 0.01 | 0.33 | 0.00 | 92 | 1009.3 | |
| 20260510042016 | 48 | 0.0 | 0.0 | 0.01 | 0.33 | 0.00 | 92 | 1009.2 | |
| 20260510041537 | 48 | 0.0 | 0.0 | 0.02 | 0.33 | 0.00 | 92 | 1009.2 | |
| 20260510041016 | 48 | 0.0 | 0.0 | 0.02 | 0.33 | 0.00 | 92 | 1009.2 | |
| 20260510040536 | 48 | 0.0 | 0.0 | 0.02 | 0.33 | 0.00 | 92 | 1009.2 | |
| 20260510040036 | 48 | 0.0 | 0.0 | 0.02 | 0.33 | 0.33 | 92 | 1009.1 | |
| 20260510035516 | 48 | 0.0 | 0.0 | 0.02 | 0.33 | 0.33 | 92 | 1009.2 | |
| 20260510035016 | 48 | 0.0 | 0.0 | 0.01 | 0.32 | 0.32 | 92 | 1009.3 | |
| 20260510034516 | 48 | 0.0 | 0.0 | 0.01 | 0.32 | 0.32 | 92 | 1009.5 | |
| 20260510034036 | 48 | 0.0 | 0.0 | 0.01 | 0.32 | 0.32 | 92 | 1009.5 | |
| 20260510033516 | 48 | 0.0 | 0.0 | 0.01 | 0.32 | 0.32 | 92 | 1009.5 | |
| 20260510033016 | 48 | 0.0 | 0.0 | 0.01 | 0.32 | 0.32 | 92 | 1009.3 | |
| 20260510032516 | 48 | 0.0 | 0.0 | 0.01 | 0.32 | 0.32 | 92 | 1009.3 | |
| 20260510032016 | 48 | 0.0 | 0.0 | 0.01 | 0.32 | 0.32 | 92 | 1009.4 | |
| 20260510031516 | 48 | 0.0 | 0.0 | 0.01 | 0.31 | 0.31 | 92 | 1009.5 | |
| 20260510031016 | 48 | 0.0 | 0.0 | 0.01 | 0.31 | 0.31 | 92 | 1009.5 | |
| 20260510030516 | 48 | 0.0 | 0.0 | 0.01 | 0.31 | 0.31 | 92 | 1009.6 | |
| 20260510030016 | 48 | 0.0 | 0.0 | 0.01 | 0.31 | 0.31 | 92 | 1009.7 | |
| 20260510025516 | 48 | 0.0 | 0.0 | 0.01 | 0.31 | 0.31 | 92 | 1009.7 | |
| 20260510025016 | 48 | 0.0 | 0.0 | 0.01 | 0.31 | 0.31 | 92 | 1009.8 | |
| 20260510024516 | 48 | 0.0 | 0.0 | 0.02 | 0.31 | 0.31 | 92 | 1009.8 | |
| 20260510024016 | 48 | 0.0 | 0.0 | 0.02 | 0.31 | 0.31 | 92 | 1009.8 | |
| 20260510023516 | 48 | 0.0 | 0.0 | 0.02 | 0.31 | 0.31 | 92 | 1009.9 | |
| 20260510023016 | 48 | 0.0 | 0.0 | 0.02 | 0.31 | 0.31 | 92 | 1009.8 | |
| 20260510022536 | 48 | 0.0 | 0.0 | 0.02 | 0.31 | 0.31 | 92 | 1009.8 | |
| 20260510022036 | 48 | 0.0 | 0.0 | 0.02 | 0.31 | 0.31 | 92 | 1009.9 | |
| 20260510021536 | 48 | 0.0 | 0.0 | 0.01 | 0.30 | 0.30 | 92 | 1009.9 | |
| 20260510021016 | 48 | 0.0 | 0.0 | 0.01 | 0.30 | 0.30 | 92 | 1010.0 | |
| 20260510020516 | 48 | 0.0 | 0.0 | 0.01 | 0.30 | 0.30 | 92 | 1010.0 | |
| 20260510020016 | 48 | 0.0 | 0.0 | 0.02 | 0.30 | 0.30 | 92 | 1010.1 | |
| 20260510015516 | 48 | 0.0 | 0.0 | 0.02 | 0.30 | 0.30 | 92 | 1010.1 | |
| 20260510015036 | 48 | 0.0 | 0.0 | 0.02 | 0.30 | 0.30 | 92 | 1010.2 | |
| 20260510014516 | 48 | 0.0 | 0.0 | 0.01 | 0.29 | 0.29 | 93 | 1010.1 | |
| 20260510014036 | 48 | 0.0 | 0.0 | 0.02 | 0.29 | 0.29 | 92 | 1010.0 | |
| 20260510013516 | 48 | 0.0 | 0.0 | 0.02 | 0.29 | 0.29 | 92 | 1009.9 | |
| 20260510013016 | 48 | 0.0 | 0.0 | 0.02 | 0.29 | 0.29 | 92 | 1009.9 | |
| 20260510012515 | 48 | 0.0 | 0.0 | 0.02 | 0.29 | 0.29 | 92 | 1009.9 | |
| 20260510012016 | 48 | 0.0 | 0.0 | 0.02 | 0.29 | 0.29 | 92 | 1009.9 | |
| 20260510011516 | 48 | 0.0 | 0.0 | 0.02 | 0.29 | 0.29 | 92 | 1009.9 | |
| 20260510011015 | 48 | 0.0 | 0.0 | 0.02 | 0.29 | 0.29 | 92 | 1010.0 | |
| 20260510010516 | 48 | 0.0 | 0.0 | 0.02 | 0.29 | 0.29 | 92 | 1009.9 | |
| 20260510010016 | 48 | 0.0 | 0.0 | 0.02 | 0.28 | 0.28 | 92 | 1009.9 | |
| 20260510005516 | 48 | 0.0 | 0.0 | 0.02 | 0.28 | 0.28 | 92 | 1009.8 | |
| 20260510005015 | 48 | 0.0 | 0.0 | 0.02 | 0.28 | 0.28 | 92 | 1009.7 | |
| 20260510004516 | 48 | 0.0 | 0.0 | 0.02 | 0.28 | 0.28 | 92 | 1009.7 | |
| 20260510004016 | 48 | 0.0 | 0.0 | 0.02 | 0.27 | 0.27 | 92 | 1009.6 | |
| 20260510003515 | 48 | 0.0 | 0.0 | 0.02 | 0.27 | 0.27 | 92 | 1009.6 | |
| 20260510003016 | 48 | 0.0 | 0.0 | 0.02 | 0.27 | 0.27 | 92 | 1009.5 | |
| 20260510002516 | 48 | 0.0 | 0.0 | 0.02 | 0.27 | 0.27 | 92 | 1009.7 | |
| 20260510002015 | 48 | 0.0 | 0.0 | 0.02 | 0.27 | 0.27 | 92 | 1009.8 | |
| 20260510001516 | 48 | 0.0 | 0.0 | 0.02 | 0.27 | 0.27 | 92 | 1009.8 | |
| 20260510001016 | 48 | 0.0 | 0.0 | 0.02 | 0.27 | 0.27 | 92 | 1009.8 | |
| 20260510000535 | 48 | 0.0 | 0.0 | 0.03 | 0.27 | 0.27 | 92 | 1009.9 | |
| 20260510000015 | 48 | 0.0 | 0.0 | 0.02 | 0.26 | 0.26 | 92 | 1009.9 | |
| 20260509235515 | 48 | 0.0 | 0.0 | 0.02 | 0.26 | 0.26 | 92 | 1010.0 | |
| 20260509235035 | 48 | 0.0 | 0.0 | 0.03 | 0.26 | 0.26 | 92 | 1010.0 | |
| 20260509234515 | 48 | 0.0 | 0.0 | 0.03 | 0.26 | 0.26 | 92 | 1009.9 | |
| 20260509234015 | 48 | 0.0 | 0.0 | 0.02 | 0.25 | 0.25 | 92 | 1009.8 | |
| 20260509233515 | 48 | 0.0 | 0.0 | 0.02 | 0.25 | 0.25 | 92 | 1009.7 | |
| 20260509233016 | 48 | 0.0 | 0.0 | 0.02 | 0.25 | 0.25 | 92 | 1009.8 | |
| 20260509232515 | 48 | 0.0 | 0.0 | 0.02 | 0.25 | 0.25 | 92 | 1009.8 | |
| 20260509232015 | 49 | 0.0 | 0.0 | 0.03 | 0.25 | 0.25 | 92 | 1009.7 | |
| 20260509231515 | 49 | 0.0 | 0.0 | 0.03 | 0.25 | 0.25 | 92 | 1009.5 | |
| 20260509231015 | 49 | 0.0 | 0.0 | 0.03 | 0.25 | 0.25 | 92 | 1009.5 | |
| 20260509230515 | 49 | 0.0 | 0.0 | 0.03 | 0.24 | 0.24 | 92 | 1009.5 | |
| 20260509230015 | 49 | 0.0 | 0.0 | 0.03 | 0.24 | 0.24 | 92 | 1009.6 | |
| 20260509225535 | 49 | 0.0 | 0.0 | 0.03 | 0.24 | 0.24 | 92 | 1009.5 | |
| 20260509225015 | 49 | 0.0 | 1.0 | 0.02 | 0.23 | 0.23 | 92 | 1009.5 | |
| 20260509224515 | 49 | 39 | 0.0 | 1.0 | 0.02 | 0.23 | 0.23 | 92 | 1009.5 |
| 20260509224015 | 49 | 0.0 | 0.0 | 0.02 | 0.23 | 0.23 | 92 | 1009.5 | |
| 20260509223515 | 49 | 0.0 | 0.0 | 0.03 | 0.23 | 0.23 | 92 | 1009.4 | |
| 20260509223015 | 49 | 0.0 | 0.0 | 0.03 | 0.23 | 0.23 | 92 | 1009.5 | |
| 20260509222535 | 49 | 0.0 | 0.0 | 0.03 | 0.23 | 0.23 | 92 | 1009.5 | |
| 20260509222036 | 49 | 0.0 | 0.0 | 0.03 | 0.22 | 0.22 | 92 | 1009.6 | |
| 20260509221515 | 49 | 0.0 | 0.0 | 0.03 | 0.22 | 0.22 | 92 | 1009.6 | |
| 20260509221015 | 49 | 0.0 | 0.0 | 0.03 | 0.22 | 0.22 | 92 | 1009.6 | |
| 20260509220515 | 49 | 0.0 | 0.0 | 0.02 | 0.21 | 0.21 | 92 | 1009.6 | |
| 20260509220015 | 49 | 0.0 | 0.0 | 0.02 | 0.21 | 0.21 | 92 | 1009.7 | |
| 20260509215515 | 49 | 0.0 | 0.0 | 0.02 | 0.21 | 0.21 | 92 | 1009.7 |